Time;durP1;ratioP1;P1;durP2;ratioP2;P2;SDS_P1;SDS_P2;PMS_P1;PMS_P2;Temp;Humidity;BMP_temperature;BMP_pressure;BME280_temperature;BME280_humidity;BME280_pressure;Samples;Min_cycle;Max_cycle;Signal;HPM_P1;HPM_P2
2022/03/24 00:01:36;;;;;;;;;31.00;24.25;;;;;-146.25;100.00;57879.81;5057093;28;45627;-71
2022/03/24 00:04:02;;;;;;;;;25.00;23.00;;;;;-146.25;100.00;57879.81;5057820;28;45425;-71
2022/03/24 00:06:28;;;;;;;;;29.00;25.50;;;;;-146.25;100.00;57879.81;5057344;28;45365;-70
2022/03/24 00:08:53;;;;;;;;;24.50;23.25;;;;;-146.25;100.00;57879.81;5057008;28;45421;-71
2022/03/24 00:11:20;;;;;;;;;24.25;22.25;;;;;-146.25;100.00;57879.81;5056757;28;45489;-71
2022/03/24 00:13:48;;;;;;;;;25.50;23.25;;;;;-146.25;100.00;57879.81;5057214;28;45445;-71
2022/03/24 00:16:15;;;;;;;;;25.25;22.00;;;;;-146.25;100.00;57879.81;5053258;28;45524;-71
2022/03/24 00:18:41;;;;;;;;;22.50;20.75;;;;;-146.25;100.00;57879.81;5057130;28;46211;-70
2022/03/24 00:21:08;;;;;;;;;26.00;25.25;;;;;-146.25;100.00;57879.81;5056577;28;46193;-71
2022/03/24 00:23:34;;;;;;;;;26.50;22.25;;;;;-146.25;100.00;57879.81;5056569;28;45500;-70
2022/03/24 00:25:59;;;;;;;;;25.00;21.00;;;;;-146.25;100.00;57879.81;5057082;28;45751;-71
2022/03/24 00:28:26;;;;;;;;;26.25;23.50;;;;;-146.25;100.00;57879.81;5056797;28;45392;-71
2022/03/24 00:30:52;;;;;;;;;25.50;23.00;;;;;-146.25;100.00;57879.81;5057068;28;45807;-70
2022/03/24 00:33:17;;;;;;;;;19.75;19.25;;;;;-146.25;100.00;57879.81;5057453;28;45499;-72
2022/03/24 00:35:43;;;;;;;;;23.75;22.00;;;;;-146.25;100.00;57879.81;5059218;28;45315;-71
2022/03/24 00:38:09;;;;;;;;;24.75;20.75;;;;;-146.25;100.00;57879.81;5058456;28;45517;-71
2022/03/24 00:40:35;;;;;;;;;21.75;20.00;;;;;-146.25;100.00;57879.81;5058491;28;45334;-71
2022/03/24 00:43:01;;;;;;;;;22.75;22.00;;;;;-146.25;100.00;57879.81;5057955;28;45227;-71
2022/03/24 00:45:27;;;;;;;;;23.50;22.25;;;;;-146.25;100.00;57879.81;5058206;28;45472;-71
2022/03/24 00:47:53;;;;;;;;;24.25;23.75;;;;;-146.25;100.00;57879.81;5090761;27;45549;-72
2022/03/24 00:50:19;;;;;;;;;27.00;23.00;;;;;-146.25;100.00;57879.81;5057457;28;45417;-71
2022/03/24 00:52:45;;;;;;;;;25.50;22.75;;;;;-146.25;100.00;57879.81;5057697;28;45458;-71
2022/03/24 00:55:15;;;;;;;;;26.00;21.25;;;;;-146.25;100.00;57879.81;5057937;28;45560;-71
2022/03/24 00:57:43;;;;;;;;;26.75;22.25;;;;;-146.25;100.00;57879.81;5058051;28;45474;-71
2022/03/24 01:00:15;;;;;;;;;21.25;19.50;;;;;-146.25;100.00;57879.81;5058341;28;45447;-72
2022/03/24 01:02:46;;;;;;;;;16.00;14.75;;;;;-146.25;100.00;57879.81;5057593;28;45441;-71
2022/03/24 01:05:13;;;;;;;;;22.25;21.25;;;;;-146.25;100.00;57879.81;5058029;28;45510;-71
2022/03/24 01:07:39;;;;;;;;;20.75;19.00;;;;;-146.25;100.00;57879.81;5073701;28;45381;-72
2022/03/24 01:10:06;;;;;;;;;22.25;20.00;;;;;-146.25;100.00;57879.81;5056125;28;45385;-72
2022/03/24 01:12:32;;;;;;;;;21.75;20.25;;;;;-146.25;100.00;57879.81;5057624;28;45496;-72
2022/03/24 01:14:58;;;;;;;;;24.25;23.00;;;;;-146.25;100.00;57879.81;5057768;28;45225;-71
2022/03/24 01:17:26;;;;;;;;;23.00;20.25;;;;;-146.25;100.00;57879.81;5057999;28;45397;-71
2022/03/24 01:19:53;;;;;;;;;17.00;15.00;;;;;-146.25;100.00;57879.81;5057671;28;46104;-72
2022/03/24 01:22:19;;;;;;;;;23.75;20.50;;;;;-146.25;100.00;57879.81;5057041;28;45471;-71
2022/03/24 01:24:45;;;;;;;;;23.00;22.00;;;;;-146.25;100.00;57879.81;5058198;28;45532;-72
2022/03/24 01:27:12;;;;;;;;;21.00;19.00;;;;;-146.25;100.00;57879.81;5057631;28;45635;-71
2022/03/24 01:29:38;;;;;;;;;20.00;19.75;;;;;-146.25;100.00;57879.81;5057639;28;45461;-72
2022/03/24 01:32:04;;;;;;;;;19.00;18.25;;;;;-146.25;100.00;57879.81;5057256;28;45633;-71
2022/03/24 01:34:29;;;;;;;;;20.50;16.75;;;;;-146.25;100.00;57879.81;5058033;28;45475;-71
2022/03/24 01:36:56;;;;;;;;;21.00;20.00;;;;;-146.25;100.00;57879.81;5055790;28;45931;-72
2022/03/24 01:39:22;;;;;;;;;21.75;20.00;;;;;-146.25;100.00;57879.81;5053405;28;45585;-71
2022/03/24 01:41:50;;;;;;;;;22.00;20.75;;;;;-146.25;100.00;57879.81;5055625;28;45431;-71
2022/03/24 01:44:17;;;;;;;;;20.00;18.00;;;;;-146.25;100.00;57879.81;5057352;28;45330;-72
2022/03/24 01:47:05;;;;;;;;;21.00;20.00;;;;;-146.25;100.00;57879.81;5058842;28;45488;-71
2022/03/24 01:49:33;;;;;;;;;25.50;21.50;;;;;-146.25;100.00;57879.81;5056978;28;45565;-71
2022/03/24 01:51:59;;;;;;;;;20.50;20.00;;;;;-146.25;100.00;57879.81;5056809;28;45283;-71
2022/03/24 01:54:30;;;;;;;;;18.00;17.25;;;;;-146.25;100.00;57879.81;5057139;28;45319;-72
2022/03/24 01:56:57;;;;;;;;;20.50;18.50;;;;;-146.25;100.00;57879.81;5072299;28;45592;-71
2022/03/24 01:59:24;;;;;;;;;20.50;19.25;;;;;-146.25;100.00;57879.81;5057238;28;45502;-71
2022/03/24 02:01:51;;;;;;;;;21.75;20.75;;;;;-146.25;100.00;57879.81;5056695;28;45583;-71
2022/03/24 02:04:18;;;;;;;;;20.75;19.25;;;;;-146.25;100.00;57879.81;5056711;28;45520;-71
2022/03/24 02:06:44;;;;;;;;;22.25;21.00;;;;;-146.25;100.00;57879.81;5057376;28;45412;-71
2022/03/24 02:09:12;;;;;;;;;20.00;17.25;;;;;-146.25;100.00;57879.81;5056783;28;46494;-71
2022/03/24 02:11:38;;;;;;;;;19.50;17.75;;;;;-146.25;100.00;57879.81;5042146;28;45538;-71
2022/03/24 02:14:04;;;;;;;;;18.00;16.50;;;;;-146.25;100.00;57879.81;5056692;28;45529;-71
2022/03/24 02:16:38;;;;;;;;;20.50;18.75;;;;;-146.25;100.00;57879.81;5055917;28;45463;-72
2022/03/24 02:19:23;;;;;;;;;22.50;20.25;;;;;-146.25;100.00;57879.81;5054785;28;45410;-71
2022/03/24 02:21:50;;;;;;;;;16.50;15.00;;;;;-146.25;100.00;57879.81;5056633;28;45444;-71
2022/03/24 02:24:19;;;;;;;;;18.50;17.25;;;;;-146.25;100.00;57879.81;5057169;28;45335;-71
2022/03/24 02:26:46;;;;;;;;;20.00;19.50;;;;;-146.25;100.00;57879.81;5056600;28;45406;-71
2022/03/24 02:29:15;;;;;;;;;18.75;18.50;;;;;-146.25;100.00;57879.81;5056812;28;45444;-71
2022/03/24 02:31:45;;;;;;;;;18.25;16.00;;;;;-146.25;100.00;57879.81;5072186;28;45488;-71
2022/03/24 02:36:58;;;;;;;;;19.50;17.50;;;;;-146.25;100.00;57879.81;5056772;28;45468;-72
2022/03/24 02:39:24;;;;;;;;;12.75;11.00;;;;;-146.25;100.00;57879.81;5056124;28;46110;-71
2022/03/24 02:41:54;;;;;;;;;18.00;17.00;;;;;-146.25;100.00;57879.81;5056205;28;45483;-72
2022/03/24 02:44:24;;;;;;;;;18.75;16.00;;;;;-146.25;100.00;57879.81;5057103;28;45696;-71
2022/03/24 02:46:54;;;;;;;;;17.00;15.50;;;;;-146.25;100.00;57879.81;5055887;28;45497;-72
2022/03/24 02:49:22;;;;;;;;;19.25;18.50;;;;;-146.25;100.00;57879.81;5056309;28;45611;-71
2022/03/24 02:51:59;;;;;;;;;15.00;13.75;;;;;-146.25;100.00;57879.81;5056242;28;45417;-72
2022/03/24 02:54:25;;;;;;;;;18.25;18.00;;;;;-146.25;100.00;57879.81;5056272;28;45794;-71
2022/03/24 02:56:50;;;;;;;;;15.75;14.25;;;;;-146.25;100.00;57879.81;5056695;28;45507;-72
2022/03/24 02:59:17;;;;;;;;;18.50;17.75;;;;;-146.25;100.00;57879.81;5055829;28;45858;-71
2022/03/24 03:01:50;;;;;;;;;18.50;16.75;;;;;-146.25;100.00;57879.81;5056473;28;45367;-71
2022/03/24 03:04:16;;;;;;;;;15.75;15.75;;;;;-146.25;100.00;57879.81;5056798;28;45568;-72
2022/03/24 03:06:42;;;;;;;;;17.75;16.25;;;;;-146.25;100.00;57879.81;5056478;28;45370;-71
2022/03/24 03:09:08;;;;;;;;;19.25;16.75;;;;;-146.25;100.00;57879.81;5055859;28;45925;-71
2022/03/24 03:11:34;;;;;;;;;15.50;15.50;;;;;-146.25;100.00;57879.81;5055836;28;45377;-71
2022/03/24 03:14:00;;;;;;;;;17.00;16.50;;;;;-146.25;100.00;57879.81;5044282;28;45486;-71
2022/03/24 03:16:27;;;;;;;;;18.25;17.25;;;;;-146.25;100.00;57879.81;5056390;28;45327;-71
2022/03/24 03:18:55;;;;;;;;;18.25;15.00;;;;;-146.25;100.00;57879.81;5052802;28;45703;-71
2022/03/24 03:21:22;;;;;;;;;17.25;14.50;;;;;-146.25;100.00;57879.81;5055653;28;45469;-71
2022/03/24 03:23:47;;;;;;;;;17.50;16.00;;;;;-146.25;100.00;57879.81;5055864;28;45461;-71
2022/03/24 03:26:17;;;;;;;;;18.25;16.75;;;;;-146.25;100.00;57879.81;5056253;28;45540;-72
2022/03/24 03:28:44;;;;;;;;;17.00;13.75;;;;;-146.25;100.00;57879.81;5064612;28;47026;-71
2022/03/24 03:31:10;;;;;;;;;15.75;15.25;;;;;-146.25;100.00;57879.81;5054999;28;45426;-71
2022/03/24 03:33:36;;;;;;;;;16.00;15.00;;;;;-146.25;100.00;57879.81;5055714;28;45362;-71
2022/03/24 03:36:03;;;;;;;;;15.25;14.50;;;;;-146.25;100.00;57879.81;5056664;28;45916;-71
2022/03/24 03:38:29;;;;;;;;;17.00;17.00;;;;;-146.25;100.00;57879.81;5055079;28;45458;-72
2022/03/24 03:40:55;;;;;;;;;18.50;17.00;;;;;-146.25;100.00;57879.81;5056622;28;45489;-71
2022/03/24 03:43:21;;;;;;;;;17.75;17.50;;;;;-146.25;100.00;57879.81;5056797;28;45386;-72
2022/03/24 03:45:47;;;;;;;;;17.00;14.50;;;;;-146.25;100.00;57879.81;5051906;28;45471;-72
2022/03/24 03:48:13;;;;;;;;;19.25;17.50;;;;;-146.25;100.00;57879.81;5043527;28;46079;-72
2022/03/24 03:50:42;;;;;;;;;13.75;13.00;;;;;-146.25;100.00;57879.81;5055908;28;45436;-71
2022/03/24 03:53:08;;;;;;;;;16.50;13.50;;;;;-146.25;100.00;57879.81;5055724;28;45552;-71
2022/03/24 03:55:38;;;;;;;;;19.75;17.75;;;;;-146.25;100.00;57879.81;5054475;28;45678;-71
2022/03/24 03:58:05;;;;;;;;;17.00;17.00;;;;;-146.25;100.00;57879.81;5055887;28;46204;-72
2022/03/24 04:03:16;;;;;;;;;20.00;18.75;;;;;-146.25;100.00;57879.81;5056603;28;45413;-71
2022/03/24 04:05:43;;;;;;;;;19.00;18.75;;;;;-146.25;100.00;57879.81;5071822;28;45499;-71
2022/03/24 04:08:11;;;;;;;;;17.75;16.75;;;;;-146.25;100.00;57879.81;5053988;28;47976;-72
2022/03/24 04:10:40;;;;;;;;;17.00;15.00;;;;;-146.25;100.00;57879.81;5055323;28;45570;-71
2022/03/24 04:13:06;;;;;;;;;19.25;18.50;;;;;-146.25;100.00;57879.81;5055257;28;45501;-71
2022/03/24 04:15:33;;;;;;;;;19.00;17.50;;;;;-146.25;100.00;57879.81;5055440;28;45556;-71
2022/03/24 04:17:59;;;;;;;;;16.75;16.00;;;;;-146.25;100.00;57879.81;5054877;28;46098;-71
2022/03/24 04:20:26;;;;;;;;;16.75;16.25;;;;;-146.25;100.00;57879.81;5058723;28;45459;-71
2022/03/24 04:22:52;;;;;;;;;19.50;17.25;;;;;-146.25;100.00;57879.81;5058357;28;45427;-70
2022/03/24 04:25:21;;;;;;;;;19.00;18.00;;;;;-146.25;100.00;57879.81;5059361;28;45542;-71
2022/03/24 04:27:48;;;;;;;;;16.00;15.25;;;;;-146.25;100.00;57879.81;5059549;28;45433;-71
2022/03/24 04:30:14;;;;;;;;;18.25;16.50;;;;;-146.25;100.00;57879.81;5059074;28;45565;-71
2022/03/24 04:32:43;;;;;;;;;22.25;19.50;;;;;-146.25;100.00;57879.81;5058750;28;45471;-71
2022/03/24 04:35:10;;;;;;;;;17.00;16.50;;;;;-146.25;100.00;57879.81;5058340;28;45376;-71
2022/03/24 04:37:37;;;;;;;;;18.00;16.75;;;;;-146.25;100.00;57879.81;5059833;28;46195;-72
2022/03/24 04:40:05;;;;;;;;;17.00;16.50;;;;;-146.25;100.00;57879.81;5059975;28;45413;-71
2022/03/24 04:42:31;;;;;;;;;17.00;16.00;;;;;-146.25;100.00;57879.81;5059668;28;45303;-72
2022/03/24 04:44:57;;;;;;;;;19.75;16.50;;;;;-146.25;100.00;57879.81;5059747;28;45227;-71
2022/03/24 04:47:23;;;;;;;;;18.50;15.50;;;;;-146.25;100.00;57879.81;5058956;28;45495;-71
2022/03/24 04:49:49;;;;;;;;;18.25;16.50;;;;;-146.25;100.00;57879.81;5059638;28;45882;-71
2022/03/24 04:52:15;;;;;;;;;18.00;15.50;;;;;-146.25;100.00;57879.81;5059355;28;45493;-71
2022/03/24 04:54:41;;;;;;;;;20.75;19.50;;;;;-146.25;100.00;57879.81;5059514;28;45425;-73
2022/03/24 04:57:06;;;;;;;;;17.25;16.25;;;;;-146.25;100.00;57879.81;5057799;28;46706;-71
2022/03/24 04:59:32;;;;;;;;;15.75;14.75;;;;;-146.25;100.00;57879.81;5058909;28;45493;-71
2022/03/24 05:01:57;;;;;;;;;18.25;17.00;;;;;-146.25;100.00;57879.81;5059251;28;45489;-72
2022/03/24 05:04:24;;;;;;;;;20.00;17.50;;;;;-146.25;100.00;57879.81;5059488;28;45336;-72
2022/03/24 05:06:53;;;;;;;;;19.00;19.00;;;;;-146.25;100.00;57879.81;5057896;28;45523;-71
2022/03/24 05:09:19;;;;;;;;;19.50;18.75;;;;;-146.25;100.00;57879.81;5058160;28;45365;-71
2022/03/24 05:11:46;;;;;;;;;17.75;17.25;;;;;-146.25;100.00;57879.81;5058210;28;45391;-70
2022/03/24 05:14:12;;;;;;;;;20.75;18.00;;;;;-146.25;100.00;57879.81;5057465;28;45296;-72
2022/03/24 05:16:38;;;;;;;;;19.00;18.00;;;;;-146.25;100.00;57879.81;5057803;28;45958;-71
2022/03/24 05:19:04;;;;;;;;;18.00;17.25;;;;;-146.25;100.00;57879.81;5057881;28;45588;-72
2022/03/24 05:21:33;;;;;;;;;18.00;16.50;;;;;-146.25;100.00;57879.81;5057886;28;45499;-71
2022/03/24 05:24:00;;;;;;;;;16.00;15.75;;;;;-146.25;100.00;57879.81;5057680;28;45328;-71
2022/03/24 05:26:26;;;;;;;;;17.00;16.25;;;;;-146.25;100.00;57879.81;5058090;28;45496;-71
2022/03/24 05:28:53;;;;;;;;;21.00;17.75;;;;;-146.25;100.00;57879.81;5058277;28;45437;-71
2022/03/24 05:31:21;;;;;;;;;22.75;17.25;;;;;-146.25;100.00;57879.81;5057782;28;45337;-71
2022/03/24 05:33:46;;;;;;;;;21.25;18.25;;;;;-146.25;100.00;57879.81;5058072;28;45507;-72
2022/03/24 05:36:12;;;;;;;;;20.00;16.50;;;;;-146.25;100.00;57879.81;5057358;28;45464;-71
2022/03/24 05:38:38;;;;;;;;;18.50;18.50;;;;;-146.25;100.00;57879.81;5057257;28;45438;-71
2022/03/24 05:41:05;;;;;;;;;18.00;15.50;;;;;-146.25;100.00;57879.81;5057968;28;45505;-71
2022/03/24 05:43:31;;;;;;;;;18.00;17.00;;;;;-146.25;100.00;57879.81;5040479;28;45667;-71
2022/03/24 05:45:57;;;;;;;;;21.00;18.25;;;;;-146.25;100.00;57879.81;5049707;28;46026;-71
2022/03/24 05:48:23;;;;;;;;;21.75;18.25;;;;;-146.25;100.00;57879.81;5065872;28;45395;-71
2022/03/24 05:50:49;;;;;;;;;20.00;18.00;;;;;-146.25;100.00;57879.81;5047604;28;45376;-71
2022/03/24 05:53:15;;;;;;;;;19.25;17.25;;;;;-146.25;100.00;57879.81;5057076;28;45538;-71
2022/03/24 05:55:41;;;;;;;;;17.50;17.00;;;;;-146.25;100.00;57879.81;5057550;28;45609;-71
2022/03/24 05:58:07;;;;;;;;;28.00;24.50;;;;;-146.25;100.00;57879.81;5057942;28;45362;-71
2022/03/24 06:00:38;;;;;;;;;21.00;17.00;;;;;-146.25;100.00;57879.81;5056831;28;45383;-71
2022/03/24 06:03:05;;;;;;;;;18.75;16.75;;;;;-146.25;100.00;57879.81;5073762;28;45546;-72
2022/03/24 06:05:31;;;;;;;;;17.50;15.75;;;;;-146.25;100.00;57879.81;5057650;28;45489;-71
2022/03/24 06:08:00;;;;;;;;;19.75;17.50;;;;;-146.25;100.00;57879.81;5056817;28;45825;-71
2022/03/24 06:10:27;;;;;;;;;22.25;18.50;;;;;-146.25;100.00;57879.81;5072909;28;45475;-71
2022/03/24 06:12:53;;;;;;;;;23.00;19.75;;;;;-146.25;100.00;57879.81;5058567;28;45243;-71
2022/03/24 06:15:18;;;;;;;;;19.00;18.25;;;;;-146.25;100.00;57879.81;5056892;28;45594;-71
2022/03/24 06:17:44;;;;;;;;;20.25;19.25;;;;;-146.25;100.00;57879.81;5056534;28;45518;-71
2022/03/24 06:20:10;;;;;;;;;23.75;20.75;;;;;-146.25;100.00;57879.81;5055570;28;45405;-72
2022/03/24 06:22:48;;;;;;;;;19.25;17.25;;;;;-146.25;100.00;57879.81;5056004;28;45503;-71
2022/03/24 06:25:13;;;;;;;;;19.75;17.50;;;;;-146.25;100.00;57879.81;5054330;28;47277;-71
2022/03/24 06:27:39;;;;;;;;;20.25;18.75;;;;;-146.25;100.00;57879.81;5065718;28;45533;-71
2022/03/24 06:30:06;;;;;;;;;20.25;18.00;;;;;-146.25;100.00;57879.81;5046778;28;45465;-71
2022/03/24 06:32:32;;;;;;;;;19.25;18.25;;;;;-146.25;100.00;57879.81;5056819;28;45418;-72
2022/03/24 06:34:58;;;;;;;;;20.50;19.00;;;;;-146.25;100.00;57879.81;5055901;28;45358;-71
2022/03/24 06:37:24;;;;;;;;;19.25;18.00;;;;;-146.25;100.00;57879.81;5056560;28;45442;-71
2022/03/24 06:39:49;;;;;;;;;13.50;11.25;;;;;-146.25;100.00;57879.81;5056779;28;45550;-71
2022/03/24 06:42:16;;;;;;;;;19.25;17.50;;;;;-146.25;100.00;57879.81;5056731;28;45845;-71
2022/03/24 06:44:41;;;;;;;;;21.75;20.00;;;;;-146.25;100.00;57879.81;5056230;28;45278;-71
2022/03/24 06:47:07;;;;;;;;;21.50;20.25;;;;;-146.25;100.00;57879.81;5056176;28;45363;-71
2022/03/24 06:49:33;;;;;;;;;21.25;20.25;;;;;-146.25;100.00;57879.81;5056193;28;45421;-71
2022/03/24 06:51:58;;;;;;;;;21.00;20.25;;;;;-146.25;100.00;57879.81;5057046;28;45296;-73
2022/03/24 06:54:24;;;;;;;;;17.75;17.75;;;;;-146.25;100.00;57879.81;5071490;28;47951;-71
2022/03/24 06:56:50;;;;;;;;;21.75;19.50;;;;;-146.25;100.00;57879.81;5056715;28;45540;-71
2022/03/24 06:59:16;;;;;;;;;18.25;17.00;;;;;-146.25;100.00;57879.81;5056459;28;45458;-71
2022/03/24 07:01:42;;;;;;;;;23.00;18.50;;;;;-146.25;100.00;57879.81;5056163;28;45315;-71
2022/03/24 07:04:08;;;;;;;;;19.25;17.75;;;;;-146.25;100.00;57879.81;5055768;28;46088;-72
2022/03/24 07:06:34;;;;;;;;;19.00;18.50;;;;;-146.25;100.00;57879.81;5056175;28;45657;-71
2022/03/24 07:09:00;;;;;;;;;20.75;19.50;;;;;-146.25;100.00;57879.81;5056281;28;45587;-72
2022/03/24 07:11:25;;;;;;;;;18.00;17.25;;;;;-146.25;100.00;57879.81;5055414;28;45537;-71
2022/03/24 07:13:51;;;;;;;;;18.00;17.25;;;;;-146.25;100.00;57879.81;5055422;28;45422;-71
2022/03/24 07:16:17;;;;;;;;;22.25;20.00;;;;;-146.25;100.00;57879.81;5064525;28;45493;-71
2022/03/24 07:18:43;;;;;;;;;17.25;17.00;;;;;-146.25;100.00;57879.81;5043591;28;45524;-71
2022/03/24 07:21:10;;;;;;;;;23.75;18.00;;;;;-146.25;100.00;57879.81;5054804;28;45404;-70
2022/03/24 07:23:36;;;;;;;;;21.50;18.00;;;;;-146.25;100.00;57879.81;5054190;28;45524;-71
2022/03/24 07:26:01;;;;;;;;;16.25;15.75;;;;;-146.25;100.00;57879.81;5054697;28;45604;-71
2022/03/24 07:28:27;;;;;;;;;17.75;16.50;;;;;-146.25;100.00;57879.81;5055362;28;45340;-73
2022/03/24 07:30:52;;;;;;;;;21.25;20.50;;;;;-146.25;100.00;57879.81;5053888;28;45488;-71
2022/03/24 07:33:20;;;;;;;;;21.00;18.00;;;;;-146.25;100.00;57879.81;5037204;28;46165;-72
2022/03/24 07:35:46;;;;;;;;;20.00;19.00;;;;;-146.25;100.00;57879.81;5009145;27;45602;-71
2022/03/24 07:38:12;;;;;;;;;18.75;18.50;;;;;-146.25;100.00;57879.81;5062032;28;45457;-71
2022/03/24 07:40:38;;;;;;;;;21.50;18.50;;;;;-146.25;100.00;57879.81;5067729;28;45390;-71
2022/03/24 07:43:05;;;;;;;;;17.00;16.00;;;;;-146.25;100.00;57879.81;5035223;28;45523;-71
2022/03/24 07:45:37;;;;;;;;;19.50;17.25;;;;;-146.25;100.00;57879.81;5035213;28;45384;-71
2022/03/24 07:48:17;;;;;;;;;18.00;17.25;;;;;-146.25;100.00;57879.81;5035249;28;45478;-70
2022/03/24 07:50:47;;;;;;;;;19.50;18.00;;;;;-146.25;100.00;57879.81;5035295;28;45821;-72
2022/03/24 07:53:12;;;;;;;;;19.75;19.50;;;;;-146.25;100.00;57879.81;5054239;28;45552;-73
2022/03/24 07:55:41;;;;;;;;;18.75;17.75;;;;;-146.25;100.00;57879.81;5057406;28;46499;-72
2022/03/24 07:58:08;;;;;;;;;16.25;15.75;;;;;-146.25;100.00;57879.81;5056840;28;45501;-73
2022/03/24 08:00:34;;;;;;;;;18.50;18.25;;;;;-146.25;100.00;57879.81;5053800;28;45555;-72
2022/03/24 08:03:00;;;;;;;;;12.00;11.00;;;;;-146.25;100.00;57879.81;5057178;28;46494;-73
2022/03/24 08:05:26;;;;;;;;;19.00;18.67;;;;;-146.25;100.00;57879.81;5057928;28;45782;-74
2022/03/24 08:07:54;;;;;;;;;17.33;15.67;;;;;-146.25;100.00;57879.81;5057518;28;45468;-73
2022/03/24 08:10:20;;;;;;;;;17.00;16.33;;;;;-146.25;100.00;57879.81;5058511;28;45653;-74
2022/03/24 08:12:46;;;;;;;;;24.33;21.33;;;;;-146.25;100.00;57879.81;5053096;28;45668;-74
2022/03/24 08:15:12;;;;;;;;;19.00;18.33;;;;;-146.25;100.00;57879.81;5056894;28;45417;-74
2022/03/24 08:17:38;;;;;;;;;15.33;14.33;;;;;-146.25;100.00;57879.81;5058666;28;45498;-73
2022/03/24 08:20:06;;;;;;;;;17.33;16.67;;;;;-146.25;100.00;57879.81;5058364;28;45439;-73
2022/03/24 08:22:31;;;;;;;;;18.67;18.67;;;;;-146.25;100.00;57879.81;5054420;28;46760;-74
2022/03/24 08:24:57;;;;;;;;;16.67;16.00;;;;;-146.25;100.00;57879.81;5056135;28;45461;-73
2022/03/24 08:27:22;;;;;;;;;22.00;21.33;;;;;-146.25;100.00;57879.81;5057769;28;45398;-73
2022/03/24 08:29:48;;;;;;;;;17.67;15.67;;;;;-146.25;100.00;57879.81;5056541;28;45763;-73
2022/03/24 08:32:15;;;;;;;;;16.67;16.00;;;;;-146.25;100.00;57879.81;5057560;28;46551;-73
2022/03/24 08:34:41;;;;;;;;;17.33;16.00;;;;;-146.25;100.00;57879.81;5057794;28;45471;-74
2022/03/24 08:37:07;;;;;;;;;17.00;16.00;;;;;-146.25;100.00;57879.81;5056600;28;45522;-74
2022/03/24 08:39:34;;;;;;;;;11.00;10.00;;;;;-146.25;100.00;57879.81;5058224;28;45395;-72
2022/03/24 08:42:00;;;;;;;;;15.00;14.33;;;;;-146.25;100.00;57879.81;5057588;28;46272;-71
2022/03/24 08:44:26;;;;;;;;;20.00;19.00;;;;;-146.25;100.00;57879.81;5057068;28;45354;-72
2022/03/24 08:46:51;;;;;;;;;13.33;13.33;;;;;-146.25;100.00;57879.81;5056641;28;45924;-71
2022/03/24 08:49:18;;;;;;;;;13.67;13.67;;;;;-146.25;100.00;57879.81;5057993;28;45429;-73
2022/03/24 08:51:45;;;;;;;;;11.00;9.33;;;;;-146.25;100.00;57879.81;5057803;28;45554;-71
2022/03/24 08:54:10;;;;;;;;;12.33;12.33;;;;;-146.25;100.00;57879.81;5057767;28;45316;-72
2022/03/24 08:56:36;;;;;;;;;12.33;12.00;;;;;-146.25;100.00;57879.81;5057578;28;45442;-72
2022/03/24 08:59:04;;;;;;;;;11.33;11.33;;;;;-146.25;100.00;57879.81;5058106;28;46044;-70
2022/03/24 09:01:30;;;;;;;;;12.00;12.00;;;;;-146.25;100.00;57879.81;5058344;28;46390;-72
2022/03/24 09:03:55;;;;;;;;;11.33;10.67;;;;;-146.25;100.00;57879.81;5057992;28;45272;-71
2022/03/24 09:06:22;;;;;;;;;12.00;11.67;;;;;-146.25;100.00;57879.81;5055717;28;45451;-72
2022/03/24 09:08:47;;;;;;;;;11.00;10.00;;;;;-146.25;100.00;57879.81;5057779;28;45464;-72
2022/03/24 09:11:13;;;;;;;;;12.67;12.00;;;;;-146.25;100.00;57879.81;5057407;28;46205;-71
2022/03/24 09:13:39;;;;;;;;;10.33;9.67;;;;;-146.25;100.00;57879.81;5056915;28;45422;-72
2022/03/24 09:16:06;;;;;;;;;10.33;10.33;;;;;-146.25;100.00;57879.81;5057199;28;45371;-72
2022/03/24 09:18:32;;;;;;;;;13.33;11.00;;;;;-146.25;100.00;57879.81;5057141;28;45874;-71
2022/03/24 09:20:58;;;;;;;;;12.67;12.00;;;;;-146.25;100.00;57879.81;5057920;28;45596;-72
2022/03/24 09:23:24;;;;;;;;;11.00;10.33;;;;;-146.25;100.00;57879.81;5057727;28;45566;-71
2022/03/24 09:25:50;;;;;;;;;19.00;17.33;;;;;-146.25;100.00;57879.81;5056222;28;45399;-73
2022/03/24 09:28:16;;;;;;;;;11.00;11.00;;;;;-146.25;100.00;57879.81;5055980;28;45529;-74
2022/03/24 09:30:42;;;;;;;;;10.33;10.00;;;;;-146.25;100.00;57879.81;5057044;28;46603;-72
2022/03/24 09:33:11;;;;;;;;;13.00;11.33;;;;;-146.25;100.00;57879.81;5057423;28;45427;-72
2022/03/24 09:35:37;;;;;;;;;13.33;12.67;;;;;-146.25;100.00;57879.81;5057401;28;45661;-73
2022/03/24 09:38:03;;;;;;;;;11.33;10.67;;;;;-146.25;100.00;57879.81;5057422;28;45595;-73
2022/03/24 09:40:28;;;;;;;;;11.67;11.67;;;;;-146.25;100.00;57879.81;5054447;28;45482;-73
2022/03/24 09:42:57;;;;;;;;;11.33;10.67;;;;;-146.25;100.00;57879.81;5056518;28;45768;-73
2022/03/24 09:45:24;;;;;;;;;10.00;10.00;;;;;-146.25;100.00;57879.81;5056413;28;45465;-73
2022/03/24 09:47:50;;;;;;;;;11.33;10.67;;;;;-146.25;100.00;57879.81;5056302;28;45491;-72
2022/03/24 09:50:16;;;;;;;;;13.67;13.33;;;;;-146.25;100.00;57879.81;5055989;28;45611;-71
2022/03/24 09:52:41;;;;;;;;;12.33;11.67;;;;;-146.25;100.00;57879.81;5055712;28;45578;-71
2022/03/24 09:55:09;;;;;;;;;16.00;15.33;;;;;-146.25;100.00;57879.81;5055836;28;45377;-70
2022/03/24 09:57:35;;;;;;;;;20.00;19.33;;;;;-146.25;100.00;57879.81;5064797;28;45631;-70
2022/03/24 10:00:01;;;;;;;;;13.00;13.00;;;;;-146.25;100.00;57879.81;5056369;28;46025;-70
2022/03/24 10:02:28;;;;;;;;;10.67;10.00;;;;;-146.25;100.00;57879.81;5048898;28;45536;-70
2022/03/24 10:05:04;;;;;;;;;13.00;12.67;;;;;-146.25;100.00;57879.81;5054904;28;45430;-70
2022/03/24 10:07:44;;;;;;;;;10.67;10.33;;;;;-146.25;100.00;57879.81;5057066;28;45436;-70
2022/03/24 10:10:23;;;;;;;;;11.67;11.67;;;;;-146.25;100.00;57879.81;5056700;28;45777;-70
2022/03/24 10:12:49;;;;;;;;;14.33;14.33;;;;;-146.25;100.00;57879.81;5052721;28;45476;-71
2022/03/24 10:15:16;;;;;;;;;13.00;12.67;;;;;-146.25;100.00;57879.81;5054707;28;45496;-73
2022/03/24 10:17:52;;;;;;;;;17.00;17.00;;;;;-146.25;100.00;57879.81;5054924;28;45478;-71
2022/03/24 10:20:18;;;;;;;;;15.67;14.67;;;;;-146.25;100.00;57879.81;5056532;28;46263;-71
2022/03/24 10:23:06;;;;;;;;;15.67;15.00;;;;;-146.25;100.00;57879.81;5056067;28;45491;-72
2022/03/24 10:25:39;;;;;;;;;15.00;14.33;;;;;-146.25;100.00;57879.81;5056996;28;45825;-72
2022/03/24 10:28:12;;;;;;;;;14.00;13.33;;;;;-146.25;100.00;57879.81;5058026;28;45307;-73
2022/03/24 10:30:49;;;;;;;;;12.67;12.67;;;;;-146.25;100.00;57879.81;5057714;28;45203;-72
2022/03/24 10:33:31;;;;;;;;;14.67;12.67;;;;;-146.25;100.00;57879.81;5057268;28;45543;-72
2022/03/24 10:36:09;;;;;;;;;14.00;14.00;;;;;-146.25;100.00;57879.81;5057521;28;45292;-71
2022/03/24 10:38:37;;;;;;;;;15.67;15.00;;;;;-146.25;100.00;57879.81;5054848;28;45402;-73
2022/03/24 10:41:23;;;;;;;;;14.00;14.00;;;;;-146.25;100.00;57879.81;5056148;28;45426;-74
2022/03/24 10:43:51;;;;;;;;;16.33;16.33;;;;;-146.25;100.00;57879.81;5055388;28;45327;-71
2022/03/24 10:46:22;;;;;;;;;18.00;16.00;;;;;-146.25;100.00;57879.81;5054853;28;45583;-69
2022/03/24 10:48:50;;;;;;;;;16.67;16.00;;;;;-146.25;100.00;57879.81;5055718;28;45626;-68
2022/03/24 10:51:26;;;;;;;;;14.67;14.33;;;;;-146.25;100.00;57879.81;5051470;28;45465;-72
2022/03/24 10:53:55;;;;;;;;;16.33;13.67;;;;;-146.25;100.00;57879.81;5051241;28;45704;-70
2022/03/24 10:56:29;;;;;;;;;15.33;14.67;;;;;-146.25;100.00;57879.81;5050606;28;45655;-72
2022/03/24 10:59:01;;;;;;;;;15.67;15.00;;;;;-146.25;100.00;57879.81;5053893;28;45643;-72
2022/03/24 11:01:28;;;;;;;;;16.33;14.33;;;;;-146.25;100.00;57879.81;5055065;28;45496;-72